CWC4 weather

Wetaskiwin (Hospital & Care Centre) Heliport
Wetaskiwin, Alberta, Canada

Public forecast

Using degrees Celsius for public forecast. Weather courtesy of forecast.io.

METAR (pilot weather report)

Closest report is Edmonton International Airport, 20.7 nm (38.4 km) NNW. Retrieved 2019/07/21 03:00 UTC (25 minutes ago):

CYEG 210300Z 19003KT 20SM FEW055 FEW260 18/15 A3011 RMK SC1CI1 TCU TOPS S SLP204 DENSITY ALT 3100FT

TAF (pilot weather forecast)

Closest forecast is Edmonton International Airport, 20.7 nm (38.4 km) NNW. Retrieved 2019/07/21 03:39 UTC (0 seconds ago):

TAF CYEG 210238Z 2103/2124 20005KT P6SM FEW050 SCT260 FM210900 VRB03KT P6SM SKC PROB30 2109/2111 1/2SM FG FM211100 VRB03KT 2SM BR SCT003 TEMPO 2111/2115 1/2SM FG OVC003 PROB30 2111/2114 1/4SM FG VV002 FM211500 17006KT P6SM FEW010 FM211800 17012KT P6SM SCT040 RMK NXT FCST BY 210600Z